Cincinnati Municipal Airport Lunken Field
KLUK : now visible

Airfield :











YOU CAN JOIN US ON...

 
LOGIN :

Register | Disclaimer

   EN    FR    IT 

 









Legend :    VFR   Marginal VFR   IFR   Intensive IFR   Very Intensive IFR
Visi :
Ceiling :
>= 8 km
>= 3000ft
5 to 8 km
1000 to 3000 ft
1500m to 5 km
500 to 1000 ft
800 to 1500m
200 to 500 ft
< 800m
< 200 ft
Symbols :   Thunderstorms  Fog  Heavy snow  Heavy precipitations  Wind > 20 kt






- Airport Elevation : 483 ft
- IATA code : LUK


KLUK - Cincinnati Municipal Lunken Field

CURRENT METAR :
  • 141853Z 00000KT 8SM SCT110 25/22 A2996 RMK AO2 RAE34 SLP143 P0000 T02500217

EXPIRED METARs :
  • 141753Z 18004KT 8SM -RA FEW080 BKN100 OVC120 24/22 A2999 RMK AO2 SLP151 P0002 60002 T02440217 10250 20211 56006
  • 141653Z 24004KT 10SM -RA OVC110 25/21 A3000 RMK AO2 RAB13 SLP154 P0000 T02500211

TAF KLUK
Valid from the 14 at 18:00 until the 15 at 18:00 UTC


141727Z 1418/1518 VRB03KT P6SM -SHRA BKN070 OVC100
FM142200 VRB03KT P6SM VCSH BKN060 OVC100
TEMPO 1500/1504 -TSRA BKN045CB OVC060
FM150600 VRB02KT 5SM BR SCT045 BKN120
FM151100 VRB03KT P6SM SCT028 BKN120
FM151700 02006KT P6SM BKN045
KZID FIR / North America



MET'MAP, your aeronautical weather chart ! - Copyright ORBIFLY December 2007 - Disclaimer

ORBIFLY MET'MAP TEAM :

Programming & Development : Alexandra Zaïnal
Concept & original design : Baudouin d'Aumeries
Assistance for programming : Marc-Olivier Méhu
Technical & hardware support : Manuel Goepfert

Contact : metmap@orbifly.com




SOURCES & CREDITS :

   NOAA       Earth
Advisory